createdAt,value
2017-09-22T00:00:23.186Z,934.05
2017-09-22T00:00:51.116Z,934.04
2017-09-22T00:01:19.152Z,934.05
2017-09-22T00:01:47.260Z,934.06
2017-09-22T00:02:15.164Z,934.06
2017-09-22T00:02:43.182Z,934.03
2017-09-22T00:03:11.096Z,934.06
2017-09-22T00:03:39.115Z,934.09
2017-09-22T00:04:06.942Z,934.08
2017-09-22T00:04:35.087Z,934.08
2017-09-22T00:05:02.935Z,934.09
2017-09-22T00:05:30.997Z,934.08
2017-09-22T00:05:59.068Z,934.1
2017-09-22T00:06:27.146Z,934.09
2017-09-22T00:06:55.296Z,934.08
2017-09-22T00:07:23.328Z,934.08
2017-09-22T00:07:51.145Z,934.05
2017-09-22T00:08:19.185Z,934.06
2017-09-22T00:08:46.994Z,934.05
2017-09-22T00:09:15.133Z,934.06
2017-09-22T00:09:43.181Z,934.05
2017-09-22T00:10:11.120Z,934.01
2017-09-22T00:10:39.245Z,934.03
2017-09-22T00:11:07.159Z,934.02
2017-09-22T00:11:35.407Z,934.05
2017-09-22T00:12:03.535Z,934.04
2017-09-22T00:12:31.575Z,934.06
2017-09-22T00:12:59.505Z,934.06
2017-09-22T00:13:27.332Z,934.07
2017-09-22T00:13:55.357Z,934.05
2017-09-22T00:14:23.485Z,934.08
2017-09-22T00:14:51.430Z,934.13
2017-09-22T00:15:19.264Z,934.11
2017-09-22T00:15:47.392Z,934.14
2017-09-22T00:16:15.333Z,934.14
2017-09-22T00:16:43.480Z,934.11
2017-09-22T00:17:11.547Z,934.11
2017-09-22T00:17:39.560Z,934.09
2017-09-22T00:18:07.595Z,934.1
2017-09-22T00:18:35.636Z,934.08
2017-09-22T00:19:03.701Z,934.1
2017-09-22T00:19:32.011Z,934.05
2017-09-22T00:20:00.030Z,934.1
2017-09-22T00:20:28.161Z,934.09
2017-09-22T00:20:56.275Z,934.1
2017-09-22T00:21:24.300Z,934.12
2017-09-22T00:21:52.539Z,934.14
2017-09-22T00:22:20.573Z,934.12
2017-09-22T00:22:48.448Z,934.13
2017-09-22T00:23:16.385Z,934.13
2017-09-22T00:23:44.310Z,934.14
2017-09-22T00:24:12.149Z,934.12
2017-09-22T00:24:40.222Z,934.09
2017-09-22T00:25:08.334Z,934.1
2017-09-22T00:25:36.370Z,934.13
2017-09-22T00:26:04.296Z,934.08
2017-09-22T00:26:32.405Z,934.07
2017-09-22T00:27:00.631Z,934.08
2017-09-22T00:27:28.680Z,934.08
2017-09-22T00:27:56.620Z,934.04
2017-09-22T00:28:24.768Z,933.99
2017-09-22T00:28:52.800Z,934
2017-09-22T00:29:20.740Z,934.05
2017-09-22T00:29:48.778Z,934.03
2017-09-22T00:30:16.825Z,934
2017-09-22T00:30:44.864Z,934.01
2017-09-22T00:31:12.784Z,934.01
2017-09-22T00:31:40.826Z,933.99
2017-09-22T00:32:08.749Z,934.05
2017-09-22T00:32:36.660Z,934.04
2017-09-22T00:33:04.679Z,934.04
2017-09-22T00:33:32.801Z,934.03
2017-09-22T00:34:00.636Z,934.04
2017-09-22T00:34:28.366Z,934.05
2017-09-22T00:34:56.288Z,934.07
2017-09-22T00:35:24.327Z,934.03
2017-09-22T00:35:52.171Z,934.1
2017-09-22T00:36:20.077Z,934.08
2017-09-22T00:36:48.202Z,934.08
2017-09-22T00:37:16.141Z,934.1
2017-09-22T00:37:44.210Z,934.12
2017-09-22T00:38:12.245Z,934.06
2017-09-22T00:38:40.181Z,934.09
2017-09-22T00:39:08.145Z,934.1
2017-09-22T00:39:36.290Z,934.09
2017-09-22T00:40:04.130Z,934.08
2017-09-22T00:40:32.458Z,934.12
2017-09-22T00:41:00.525Z,934.11
2017-09-22T00:41:28.661Z,934.11
2017-09-22T00:41:56.901Z,934.12
2017-09-22T00:42:24.928Z,934.1
2017-09-22T00:42:52.760Z,934.11
2017-09-22T00:43:20.764Z,934.08
2017-09-22T00:43:48.886Z,934.09
2017-09-22T00:44:16.996Z,934.09
2017-09-22T00:44:44.953Z,934.11
2017-09-22T00:45:12.987Z,934.1
2017-09-22T00:45:41.050Z,934.1
2017-09-22T00:46:09.094Z,934.12
2017-09-22T00:46:37.237Z,934.13
2017-09-22T00:47:05.179Z,934.14
2017-09-22T00:47:32.995Z,934.09
2017-09-22T00:48:00.926Z,934.1
2017-09-22T00:48:28.966Z,934.1
2017-09-22T00:48:57.018Z,934.12
2017-09-22T00:49:25.070Z,934.12
2017-09-22T00:49:53.020Z,934.12
2017-09-22T00:50:20.945Z,934.09
2017-09-22T00:50:48.971Z,934.1
2017-09-22T00:51:16.977Z,934.11
2017-09-22T00:51:44.902Z,934.11
2017-09-22T00:52:12.826Z,934.06
2017-09-22T00:52:40.737Z,934.06
2017-09-22T00:53:09.456Z,934.05
2017-09-22T00:53:37.504Z,934.11
2017-09-22T00:54:05.856Z,934.05
2017-09-22T00:54:34.217Z,934.04
2017-09-22T00:55:02.153Z,934.02
2017-09-22T00:55:30.357Z,934.08
2017-09-22T00:55:58.495Z,934.04
2017-09-22T00:56:26.608Z,934.07
2017-09-22T00:56:54.991Z,934.08
2017-09-22T00:57:23.261Z,934.05
2017-09-22T00:57:51.065Z,934.06
2017-09-22T00:58:18.898Z,934.08
2017-09-22T00:58:46.620Z,934.08
2017-09-22T00:59:14.645Z,934.07
2017-09-22T00:59:42.701Z,934.06
2017-09-22T01:00:10.552Z,934.02
2017-09-22T01:00:38.495Z,934.05
2017-09-22T01:01:06.535Z,934.05
2017-09-22T01:01:34.268Z,934.08
2017-09-22T01:02:02.492Z,934.04
2017-09-22T01:02:30.610Z,934.1
2017-09-22T01:02:58.684Z,934.08
2017-09-22T01:03:26.615Z,934.09
2017-09-22T01:03:54.735Z,934.07
2017-09-22T01:04:22.864Z,934.08
2017-09-22T01:04:50.913Z,934.06
2017-09-22T01:05:19.039Z,934.11
2017-09-22T01:05:47.198Z,934.07
2017-09-22T01:06:15.332Z,934.09
2017-09-22T01:06:43.178Z,934.11
2017-09-22T01:07:11.340Z,934.06
2017-09-22T01:07:39.171Z,934.08
2017-09-22T01:08:07.210Z,934.08
2017-09-22T01:08:35.169Z,934.06
2017-09-22T01:09:03.198Z,934.11
2017-09-22T01:09:31.215Z,934.07
2017-09-22T01:09:59.254Z,934.1
2017-09-22T01:10:27.272Z,934.1
2017-09-22T01:10:55.231Z,934.08
2017-09-22T01:11:23.152Z,934.09
2017-09-22T01:11:51.174Z,934.11
2017-09-22T01:12:19.341Z,934.12
2017-09-22T01:12:47.300Z,934.11
2017-09-22T01:13:15.234Z,934.11
2017-09-22T01:13:43.360Z,934.11
2017-09-22T01:14:11.303Z,934.09
2017-09-22T01:14:39.143Z,934.11
2017-09-22T01:15:06.970Z,934.11
2017-09-22T01:15:34.872Z,934.12
2017-09-22T01:16:02.926Z,934.12
2017-09-22T01:16:30.929Z,934.15
2017-09-22T01:16:58.865Z,934.13
2017-09-22T01:17:26.901Z,934.13
2017-09-22T01:17:55.039Z,934.17
2017-09-22T01:18:23.166Z,934.14
2017-09-22T01:18:51.316Z,934.14
2017-09-22T01:19:19.260Z,934.19
2017-09-22T01:19:47.280Z,934.18
2017-09-22T01:20:15.346Z,934.14
2017-09-22T01:20:43.392Z,934.16
2017-09-22T01:21:11.411Z,934.19
2017-09-22T01:21:39.429Z,934.14
2017-09-22T01:22:07.484Z,934.18
2017-09-22T01:22:35.191Z,934.14
2017-09-22T01:23:03.129Z,934.16
2017-09-22T01:23:31.273Z,934.15
2017-09-22T01:23:59.302Z,934.14
2017-09-22T01:24:27.241Z,934.17
2017-09-22T01:24:55.176Z,934.13
2017-09-22T01:25:23.111Z,934.14
2017-09-22T01:25:51.068Z,934.12
2017-09-22T01:26:18.988Z,934.1
2017-09-22T01:26:47.023Z,934.11
2017-09-22T01:27:14.847Z,934.08
2017-09-22T01:27:43.009Z,934.1
2017-09-22T01:28:10.954Z,934.09
2017-09-22T01:28:38.868Z,934.1
2017-09-22T01:29:06.792Z,934.11
2017-09-22T01:29:34.819Z,934.09
2017-09-22T01:30:02.770Z,934.04
2017-09-22T01:30:30.693Z,934.06
2017-09-22T01:30:58.608Z,934.05
2017-09-22T01:31:26.667Z,934.04
2017-09-22T01:31:54.826Z,934.06
2017-09-22T01:32:23.226Z,934.06
2017-09-22T01:32:51.181Z,934.07
2017-09-22T01:33:19.285Z,934.06
2017-09-22T01:33:47.330Z,934.09
2017-09-22T01:34:15.468Z,934.08
2017-09-22T01:34:43.504Z,934.1
2017-09-22T01:35:11.557Z,934.1
2017-09-22T01:35:39.571Z,934.07
2017-09-22T01:36:07.533Z,934.09
2017-09-22T01:36:35.477Z,934.07
2017-09-22T01:37:03.620Z,934.02
2017-09-22T01:37:31.363Z,934.04
2017-09-22T01:37:59.188Z,934.04
2017-09-22T01:38:27.236Z,934.05
2017-09-22T01:38:55.050Z,934.04
2017-09-22T01:39:23.051Z,934.02
2017-09-22T01:39:51.107Z,934.02
2017-09-22T01:40:18.920Z,934.01
2017-09-22T01:40:46.764Z,933.99
2017-09-22T01:41:14.709Z,933.99
2017-09-22T01:41:42.725Z,933.99
2017-09-22T01:42:10.688Z,933.99
2017-09-22T01:42:38.818Z,934.01
2017-09-22T01:43:06.751Z,934.03
2017-09-22T01:43:34.791Z,934.01
2017-09-22T01:44:02.815Z,934
2017-09-22T01:44:30.952Z,933.98
2017-09-22T01:44:58.977Z,933.99
2017-09-22T01:45:26.902Z,933.95
2017-09-22T01:45:54.840Z,933.96
2017-09-22T01:46:22.969Z,933.98
2017-09-22T01:46:50.897Z,933.95
2017-09-22T01:47:19.039Z,933.95
2017-09-22T01:47:47.195Z,933.94
2017-09-22T01:48:15.124Z,933.93
2017-09-22T01:48:43.172Z,933.92
2017-09-22T01:49:11.096Z,933.9
2017-09-22T01:49:39.239Z,933.92
2017-09-22T01:50:07.357Z,933.87
2017-09-22T01:50:35.493Z,933.91
2017-09-22T01:51:03.428Z,933.93
2017-09-22T01:51:31.377Z,933.88
2017-09-22T01:51:59.414Z,933.87
2017-09-22T01:52:27.589Z,933.9
2017-09-22T01:52:55.410Z,933.92
2017-09-22T01:53:23.442Z,933.91
2017-09-22T01:53:51.504Z,933.89
2017-09-22T01:54:19.653Z,933.9
2017-09-22T01:54:47.669Z,933.93
2017-09-22T01:55:15.768Z,933.9
2017-09-22T01:55:43.803Z,933.89
2017-09-22T01:56:11.814Z,933.9
2017-09-22T01:56:39.962Z,933.9
2017-09-22T01:57:07.990Z,933.9
2017-09-22T01:57:36.239Z,933.89
2017-09-22T01:58:04.252Z,933.91
2017-09-22T01:58:32.398Z,933.9
2017-09-22T01:59:00.547Z,933.9
2017-09-22T01:59:28.473Z,933.89
2017-09-22T01:59:56.504Z,933.89
2017-09-22T02:00:24.466Z,933.89
2017-09-22T02:00:52.482Z,933.87
2017-09-22T02:01:20.421Z,933.93
2017-09-22T02:01:48.468Z,933.89
2017-09-22T02:02:16.363Z,933.88
2017-09-22T02:02:44.482Z,933.88
2017-09-22T02:03:12.434Z,933.83
2017-09-22T02:03:40.354Z,933.87
2017-09-22T02:04:08.530Z,933.85
2017-09-22T02:04:36.669Z,933.84
2017-09-22T02:05:04.680Z,933.85
2017-09-22T02:05:32.727Z,933.86
2017-09-22T02:06:00.750Z,933.84
2017-09-22T02:06:28.804Z,933.87
2017-09-22T02:06:56.844Z,933.87
2017-09-22T02:07:24.869Z,933.89
2017-09-22T02:07:52.907Z,933.85
2017-09-22T02:08:21.037Z,933.87
2017-09-22T02:08:48.998Z,933.84
2017-09-22T02:09:16.973Z,933.83
2017-09-22T02:09:44.891Z,933.8
2017-09-22T02:10:12.819Z,933.82
2017-09-22T02:10:40.856Z,933.8
2017-09-22T02:11:08.896Z,933.76
2017-09-22T02:11:36.813Z,933.78
2017-09-22T02:12:04.845Z,933.72
2017-09-22T02:12:32.823Z,933.74
2017-09-22T02:13:00.770Z,933.75
2017-09-22T02:13:28.798Z,933.74
2017-09-22T02:13:56.931Z,933.72
2017-09-22T02:14:24.860Z,933.71
2017-09-22T02:14:52.916Z,933.7
2017-09-22T02:15:20.952Z,933.71
2017-09-22T02:15:48.908Z,933.69
2017-09-22T02:16:16.950Z,933.67
2017-09-22T02:16:44.864Z,933.68
2017-09-22T02:17:12.770Z,933.69
2017-09-22T02:17:40.987Z,933.69
2017-09-22T02:18:08.809Z,933.68
2017-09-22T02:18:36.833Z,933.7
2017-09-22T02:19:04.959Z,933.69
2017-09-22T02:19:33.020Z,933.67
2017-09-22T02:20:01.156Z,933.69
2017-09-22T02:20:29.105Z,933.69
2017-09-22T02:20:57.178Z,933.66
2017-09-22T02:21:25.337Z,933.67
2017-09-22T02:21:53.193Z,933.64
2017-09-22T02:22:21.324Z,933.7
2017-09-22T02:22:49.353Z,933.67
2017-09-22T02:23:17.415Z,933.69
2017-09-22T02:23:45.342Z,933.67
2017-09-22T02:24:13.287Z,933.67
2017-09-22T02:24:41.411Z,933.69
2017-09-22T02:25:09.141Z,933.68
2017-09-22T02:25:37.123Z,933.69
2017-09-22T02:26:05.152Z,933.7
2017-09-22T02:26:33.313Z,933.68
2017-09-22T02:27:01.476Z,933.69
2017-09-22T02:27:29.574Z,933.67
2017-09-22T02:27:57.607Z,933.69
2017-09-22T02:28:25.432Z,933.67
2017-09-22T02:28:53.378Z,933.68
2017-09-22T02:29:21.344Z,933.72
2017-09-22T02:29:49.152Z,933.65
2017-09-22T02:30:17.054Z,933.67
2017-09-22T02:30:45.175Z,933.68
2017-09-22T02:31:13.302Z,933.67
2017-09-22T02:31:41.221Z,933.67
2017-09-22T02:32:09.343Z,933.66
2017-09-22T02:32:37.274Z,933.67
2017-09-22T02:33:05.548Z,933.68
2017-09-22T02:33:33.601Z,933.68
2017-09-22T02:34:01.553Z,933.69
2017-09-22T02:34:29.571Z,933.67
2017-09-22T02:34:57.500Z,933.69
2017-09-22T02:35:25.529Z,933.7
2017-09-22T02:35:53.557Z,933.69
2017-09-22T02:36:21.690Z,933.69
2017-09-22T02:36:49.826Z,933.7
2017-09-22T02:37:17.956Z,933.69
2017-09-22T02:37:46.219Z,933.69
2017-09-22T02:38:14.268Z,933.69
2017-09-22T02:38:42.197Z,933.68
2017-09-22T02:39:10.241Z,933.69
2017-09-22T02:39:38.372Z,933.69
2017-09-22T02:40:06.404Z,933.7
2017-09-22T02:40:34.331Z,933.7
2017-09-22T02:41:02.350Z,933.69
2017-09-22T02:41:30.483Z,933.68
2017-09-22T02:41:58.315Z,933.69
2017-09-22T02:42:26.430Z,933.67
2017-09-22T02:42:54.282Z,933.68
2017-09-22T02:43:22.322Z,933.66
2017-09-22T02:43:50.193Z,933.66
2017-09-22T02:44:18.119Z,933.68
2017-09-22T02:44:46.262Z,933.7
2017-09-22T02:45:14.382Z,933.67
2017-09-22T02:45:42.394Z,933.67
2017-09-22T02:46:10.534Z,933.69
2017-09-22T02:46:38.566Z,933.67
2017-09-22T02:47:06.605Z,933.67
2017-09-22T02:47:34.626Z,933.68
2017-09-22T02:48:02.683Z,933.69
2017-09-22T02:48:30.741Z,933.65
2017-09-22T02:48:58.868Z,933.68
2017-09-22T02:49:26.886Z,933.71
2017-09-22T02:49:54.846Z,933.67
2017-09-22T02:50:22.977Z,933.68
2017-09-22T02:50:50.833Z,933.67
2017-09-22T02:51:18.762Z,933.67
2017-09-22T02:51:46.666Z,933.65
2017-09-22T02:52:14.477Z,933.67
2017-09-22T02:52:42.405Z,933.7
2017-09-22T02:53:10.495Z,933.69
2017-09-22T02:53:38.425Z,933.69
2017-09-22T02:54:06.370Z,933.7
2017-09-22T02:54:34.413Z,933.71
2017-09-22T02:55:02.442Z,933.7
2017-09-22T02:55:30.575Z,933.73
2017-09-22T02:55:58.526Z,933.71
2017-09-22T02:56:26.357Z,933.7
2017-09-22T02:56:54.382Z,933.68
2017-09-22T02:57:22.502Z,933.71
2017-09-22T02:57:50.531Z,933.69
2017-09-22T02:58:18.775Z,933.68
2017-09-22T02:58:46.906Z,933.69
2017-09-22T02:59:14.851Z,933.68
2017-09-22T02:59:42.776Z,933.66
2017-09-22T03:00:10.811Z,933.66
2017-09-22T03:00:38.832Z,933.64
2017-09-22T03:01:06.772Z,933.64
2017-09-22T03:01:34.825Z,933.66
2017-09-22T03:02:02.567Z,933.63
2017-09-22T03:02:30.693Z,933.62
2017-09-22T03:02:58.905Z,933.65
2017-09-22T03:03:26.613Z,933.66
2017-09-22T03:03:54.634Z,933.65
2017-09-22T03:04:22.467Z,933.63
2017-09-22T03:04:50.588Z,933.63
2017-09-22T03:05:18.621Z,933.64
2017-09-22T03:05:46.769Z,933.63
2017-09-22T03:06:14.621Z,933.61
2017-09-22T03:06:42.670Z,933.62
2017-09-22T03:07:10.425Z,933.6
2017-09-22T03:07:38.551Z,933.61
2017-09-22T03:08:06.671Z,933.59
2017-09-22T03:08:34.701Z,933.63
2017-09-22T03:09:02.646Z,933.63
2017-09-22T03:09:30.598Z,933.62
2017-09-22T03:09:58.533Z,933.62
2017-09-22T03:10:26.689Z,933.64
2017-09-22T03:10:54.713Z,933.64
2017-09-22T03:11:22.732Z,933.62
2017-09-22T03:11:50.751Z,933.62
2017-09-22T03:12:18.768Z,933.59
2017-09-22T03:12:46.601Z,933.59
2017-09-22T03:13:14.618Z,933.59
2017-09-22T03:13:42.739Z,933.58
2017-09-22T03:14:10.782Z,933.57
2017-09-22T03:14:38.727Z,933.57
2017-09-22T03:15:06.473Z,933.57
2017-09-22T03:15:34.437Z,933.6
2017-09-22T03:16:02.449Z,933.55
2017-09-22T03:16:30.265Z,933.56
2017-09-22T03:16:57.995Z,933.58
2017-09-22T03:17:26.024Z,933.55
2017-09-22T03:17:54.073Z,933.53
2017-09-22T03:18:22.072Z,933.54
2017-09-22T03:18:49.797Z,933.51
2017-09-22T03:19:17.735Z,933.53
2017-09-22T03:19:45.879Z,933.52
2017-09-22T03:20:13.917Z,933.52
2017-09-22T03:20:41.816Z,933.51
2017-09-22T03:21:09.960Z,933.52
2017-09-22T03:21:38.072Z,933.49
2017-09-22T03:22:05.973Z,933.49
2017-09-22T03:22:34.115Z,933.47
2017-09-22T03:23:02.071Z,933.51
2017-09-22T03:23:30.103Z,933.48
2017-09-22T03:23:57.930Z,933.5
2017-09-22T03:24:25.826Z,933.49
2017-09-22T03:24:53.863Z,933.49
2017-09-22T03:25:21.812Z,933.48
2017-09-22T03:25:49.816Z,933.5
2017-09-22T03:26:17.976Z,933.49
2017-09-22T03:26:45.720Z,933.49
2017-09-22T03:27:13.560Z,933.48
2017-09-22T03:27:41.482Z,933.5
2017-09-22T03:28:09.609Z,933.48
2017-09-22T03:28:37.532Z,933.51
2017-09-22T03:29:05.450Z,933.44
2017-09-22T03:29:33.513Z,933.43
2017-09-22T03:30:01.453Z,933.47
2017-09-22T03:30:29.388Z,933.46
2017-09-22T03:30:57.146Z,933.47
2017-09-22T03:31:25.068Z,933.43
2017-09-22T03:31:53.118Z,933.46
2017-09-22T03:32:21.154Z,933.45
2017-09-22T03:32:49.260Z,933.48
2017-09-22T03:33:17.499Z,933.43
2017-09-22T03:33:45.437Z,933.44
2017-09-22T03:34:13.387Z,933.45
2017-09-22T03:34:41.507Z,933.46
2017-09-22T03:35:09.476Z,933.48
2017-09-22T03:35:37.625Z,933.48
2017-09-22T03:36:05.760Z,933.48
2017-09-22T03:36:33.495Z,933.46
2017-09-22T03:37:01.642Z,933.46
2017-09-22T03:37:29.478Z,933.46
2017-09-22T03:37:57.213Z,933.46
2017-09-22T03:38:25.245Z,933.45
2017-09-22T03:38:53.260Z,933.43
2017-09-22T03:39:21.130Z,933.45
2017-09-22T03:39:49.285Z,933.46
2017-09-22T03:40:17.358Z,933.43
2017-09-22T03:40:45.297Z,933.4
2017-09-22T03:41:13.318Z,933.44
2017-09-22T03:41:41.389Z,933.43
2017-09-22T03:42:09.222Z,933.43
2017-09-22T03:42:37.274Z,933.44
2017-09-22T03:43:05.411Z,933.43
2017-09-22T03:43:33.535Z,933.41
2017-09-22T03:44:01.363Z,933.43
2017-09-22T03:44:29.406Z,933.44
2017-09-22T03:44:57.357Z,933.41
2017-09-22T03:45:25.230Z,933.4
2017-09-22T03:45:53.354Z,933.41
2017-09-22T03:46:21.361Z,933.39
2017-09-22T03:46:49.481Z,933.36
2017-09-22T03:47:17.493Z,933.4
2017-09-22T03:47:45.543Z,933.38
2017-09-22T03:48:13.607Z,933.35
2017-09-22T03:48:41.655Z,933.37
2017-09-22T03:49:09.816Z,933.37
2017-09-22T03:49:37.936Z,933.38
2017-09-22T03:50:06.073Z,933.36
2017-09-22T03:50:34.101Z,933.35
2017-09-22T03:51:02.243Z,933.35
2017-09-22T03:51:30.270Z,933.33
2017-09-22T03:51:58.381Z,933.35
2017-09-22T03:52:26.391Z,933.34
2017-09-22T03:52:54.309Z,933.34
2017-09-22T03:53:22.530Z,933.36
2017-09-22T03:53:50.436Z,933.34
2017-09-22T03:54:18.585Z,933.33
2017-09-22T03:54:46.617Z,933.36
2017-09-22T03:55:14.654Z,933.32
2017-09-22T03:55:42.699Z,933.31
2017-09-22T03:56:10.539Z,933.36
2017-09-22T03:56:38.378Z,933.33
2017-09-22T03:57:06.447Z,933.34
2017-09-22T03:57:34.395Z,933.31
2017-09-22T03:58:02.321Z,933.33
2017-09-22T03:58:30.378Z,933.31
2017-09-22T03:58:58.433Z,933.29
2017-09-22T03:59:26.597Z,933.28
2017-09-22T03:59:54.730Z,933.29
2017-09-22T04:00:22.683Z,933.27
2017-09-22T04:00:50.619Z,933.29
2017-09-22T04:01:18.646Z,933.27
2017-09-22T04:01:46.402Z,933.27
2017-09-22T04:02:14.111Z,933.27
2017-09-22T04:02:41.943Z,933.26
2017-09-22T04:03:09.974Z,933.24
2017-09-22T04:03:38.250Z,933.25
2017-09-22T04:04:06.169Z,933.29
2017-09-22T04:04:34.012Z,933.27
2017-09-22T04:05:01.851Z,933.24
2017-09-22T04:05:29.757Z,933.23
2017-09-22T04:05:57.702Z,933.24
2017-09-22T04:06:25.726Z,933.24
2017-09-22T04:06:53.755Z,933.25
2017-09-22T04:07:21.759Z,933.24
2017-09-22T04:07:49.718Z,933.24
2017-09-22T04:08:17.641Z,933.29
2017-09-22T04:08:45.901Z,933.3
2017-09-22T04:09:13.983Z,933.24
2017-09-22T04:09:41.990Z,933.26
2017-09-22T04:10:10.620Z,933.27
2017-09-22T04:10:38.703Z,933.22
2017-09-22T04:11:06.977Z,933.23
2017-09-22T04:11:35.281Z,933.25
2017-09-22T04:12:03.260Z,933.28
2017-09-22T04:12:31.348Z,933.27
2017-09-22T04:12:59.493Z,933.25
2017-09-22T04:13:27.571Z,933.27
2017-09-22T04:13:55.684Z,933.26
2017-09-22T04:14:23.685Z,933.25
2017-09-22T04:14:51.690Z,933.25
2017-09-22T04:15:19.808Z,933.25
2017-09-22T04:15:47.710Z,933.23
2017-09-22T04:16:15.730Z,933.22
2017-09-22T04:16:43.778Z,933.25
2017-09-22T04:17:11.795Z,933.24
2017-09-22T04:17:39.948Z,933.22
2017-09-22T04:18:07.853Z,933.25
2017-09-22T04:18:36.091Z,933.27
2017-09-22T04:19:04.044Z,933.25
2017-09-22T04:19:32.096Z,933.24
2017-09-22T04:20:00.046Z,933.21
2017-09-22T04:20:28.189Z,933.23
2017-09-22T04:20:56.258Z,933.21
2017-09-22T04:21:24.197Z,933.23
2017-09-22T04:21:52.139Z,933.22
2017-09-22T04:22:20.282Z,933.23
2017-09-22T04:22:48.240Z,933.23
2017-09-22T04:23:16.255Z,933.24
2017-09-22T04:23:44.302Z,933.23
2017-09-22T04:24:12.127Z,933.22
2017-09-22T04:24:40.243Z,933.22
2017-09-22T04:25:08.195Z,933.23
2017-09-22T04:25:36.213Z,933.22
2017-09-22T04:26:04.155Z,933.22
2017-09-22T04:26:32.000Z,933.25
2017-09-22T04:27:00.128Z,933.25
2017-09-22T04:27:28.163Z,933.26
2017-09-22T04:27:56.096Z,933.24
2017-09-22T04:28:24.033Z,933.23
2017-09-22T04:28:52.266Z,933.22
2017-09-22T04:29:20.275Z,933.25
2017-09-22T04:29:48.309Z,933.25
2017-09-22T04:30:16.344Z,933.26
2017-09-22T04:30:44.475Z,933.22
2017-09-22T04:31:12.484Z,933.22
2017-09-22T04:31:40.511Z,933.24
2017-09-22T04:32:08.510Z,933.21
2017-09-22T04:32:36.463Z,933.21
2017-09-22T04:33:04.367Z,933.2
2017-09-22T04:33:32.207Z,933.21
2017-09-22T04:34:00.315Z,933.22
2017-09-22T04:34:28.134Z,933.21
2017-09-22T04:34:56.287Z,933.23
2017-09-22T04:35:24.314Z,933.24
2017-09-22T04:35:52.476Z,933.23
2017-09-22T04:36:20.308Z,933.21
2017-09-22T04:36:48.235Z,933.2
2017-09-22T04:37:16.181Z,933.2
2017-09-22T04:37:44.122Z,933.18
2017-09-22T04:38:12.162Z,933.19
2017-09-22T04:38:40.186Z,933.2
2017-09-22T04:39:08.421Z,933.18
2017-09-22T04:39:36.356Z,933.16
2017-09-22T04:40:04.469Z,933.16
2017-09-22T04:40:32.482Z,933.16
2017-09-22T04:41:00.515Z,933.15
2017-09-22T04:41:28.561Z,933.15
2017-09-22T04:41:56.684Z,933.15
2017-09-22T04:42:24.750Z,933.13
2017-09-22T04:42:52.786Z,933.15
2017-09-22T04:43:20.694Z,933.13
2017-09-22T04:43:48.907Z,933.15
2017-09-22T04:44:17.026Z,933.12
2017-09-22T04:44:45.043Z,933.11
2017-09-22T04:45:13.183Z,933.11
2017-09-22T04:45:41.220Z,933.12
2017-09-22T04:46:09.148Z,933.1
2017-09-22T04:46:37.188Z,933.12
2017-09-22T04:47:05.130Z,933.12
2017-09-22T04:47:33.064Z,933.11
2017-09-22T04:48:01.104Z,933.12
2017-09-22T04:48:29.145Z,933.12
2017-09-22T04:48:57.069Z,933.12
2017-09-22T04:49:25.108Z,933.12
2017-09-22T04:49:53.150Z,933.1
2017-09-22T04:50:20.976Z,933.14
2017-09-22T04:50:49.021Z,933.16
2017-09-22T04:51:17.036Z,933.13
2017-09-22T04:51:45.065Z,933.12
2017-09-22T04:52:13.107Z,933.11
2017-09-22T04:52:41.157Z,933.1
2017-09-22T04:53:09.310Z,933.1
2017-09-22T04:53:37.213Z,933.1
2017-09-22T04:54:05.367Z,933.08
2017-09-22T04:54:33.422Z,933.08
2017-09-22T04:55:01.587Z,933.08
2017-09-22T04:55:29.716Z,933.07
2017-09-22T04:55:57.846Z,933.05
2017-09-22T04:56:25.968Z,933.06
2017-09-22T04:56:54.004Z,933.05
2017-09-22T04:57:22.041Z,933.04
2017-09-22T04:57:50.070Z,933.05
2017-09-22T04:58:18.087Z,933.07
2017-09-22T04:58:46.142Z,933.08
2017-09-22T04:59:14.370Z,933.05
2017-09-22T04:59:42.424Z,933.05
2017-09-22T05:00:10.542Z,933.05
2017-09-22T05:00:38.493Z,933.06
2017-09-22T05:01:06.602Z,933.05
2017-09-22T05:01:34.739Z,933.02
2017-09-22T05:02:02.680Z,933.04
2017-09-22T05:02:30.730Z,933.04
2017-09-22T05:02:58.867Z,933.05
2017-09-22T05:03:26.695Z,933.05
2017-09-22T05:03:54.623Z,933.06
2017-09-22T05:04:22.645Z,933.03
2017-09-22T05:04:50.289Z,933.04
2017-09-22T05:05:18.305Z,933.06
2017-09-22T05:05:46.335Z,933.05
2017-09-22T05:06:14.362Z,933.06
2017-09-22T05:06:42.287Z,933.1
2017-09-22T05:07:10.444Z,933.07
2017-09-22T05:07:38.312Z,933.03
2017-09-22T05:08:06.476Z,933.04
2017-09-22T05:08:34.597Z,933.06
2017-09-22T05:09:02.758Z,933.07
2017-09-22T05:09:30.774Z,933.05
2017-09-22T05:09:58.824Z,933.05
2017-09-22T05:10:26.644Z,933.06
2017-09-22T05:10:54.704Z,933.01
2017-09-22T05:11:22.741Z,933.03
2017-09-22T05:11:50.679Z,933.03
2017-09-22T05:12:18.714Z,933.07
2017-09-22T05:12:46.746Z,933.04
2017-09-22T05:13:14.769Z,933.01
2017-09-22T05:13:42.842Z,933.06
2017-09-22T05:14:10.975Z,933.02
2017-09-22T05:14:39.098Z,933.04
2017-09-22T05:15:07.027Z,933.07
2017-09-22T05:15:35.176Z,933.07
2017-09-22T05:16:03.083Z,933.03
2017-09-22T05:16:31.118Z,933.02
2017-09-22T05:16:59.087Z,933.05
2017-09-22T05:17:27.126Z,933.03
2017-09-22T05:17:54.973Z,933.05
2017-09-22T05:18:22.904Z,933.05
2017-09-22T05:18:50.971Z,933.01
2017-09-22T05:19:18.992Z,933.02
2017-09-22T05:19:47.139Z,933.02
2017-09-22T05:20:15.187Z,933.03
2017-09-22T05:20:43.324Z,933.05
2017-09-22T05:21:11.350Z,932.99
2017-09-22T05:21:39.277Z,933
2017-09-22T05:22:07.018Z,933
2017-09-22T05:22:35.126Z,933.03
2017-09-22T05:23:03.289Z,932.98
2017-09-22T05:23:31.133Z,933
2017-09-22T05:23:59.252Z,932.97
2017-09-22T05:24:27.367Z,932.95
2017-09-22T05:24:55.405Z,932.97
2017-09-22T05:25:23.449Z,932.96
2017-09-22T05:25:51.564Z,932.96
2017-09-22T05:26:19.606Z,932.98
2017-09-22T05:26:47.735Z,932.95
2017-09-22T05:27:15.895Z,932.94
2017-09-22T05:27:44.012Z,932.95
2017-09-22T05:28:12.153Z,932.94
2017-09-22T05:28:40.184Z,932.94
2017-09-22T05:29:08.305Z,932.92
2017-09-22T05:29:36.448Z,932.94
2017-09-22T05:30:04.466Z,932.94
2017-09-22T05:30:32.294Z,932.91
2017-09-22T05:31:00.238Z,932.92
2017-09-22T05:31:28.193Z,932.91
2017-09-22T05:31:56.211Z,932.95
2017-09-22T05:32:24.144Z,932.93
2017-09-22T05:32:51.972Z,932.92
2017-09-22T05:33:20.002Z,932.94
2017-09-22T05:33:48.132Z,932.96
2017-09-22T05:34:16.246Z,932.94
2017-09-22T05:34:44.195Z,932.94
2017-09-22T05:35:12.339Z,932.93
2017-09-22T05:35:40.296Z,932.94
2017-09-22T05:36:08.327Z,932.93
2017-09-22T05:36:36.262Z,932.92
2017-09-22T05:37:04.211Z,932.93
2017-09-22T05:37:32.132Z,932.91
2017-09-22T05:38:00.088Z,932.91
2017-09-22T05:38:28.005Z,932.92
2017-09-22T05:38:55.954Z,932.93
2017-09-22T05:39:23.890Z,932.92
2017-09-22T05:39:51.725Z,932.9
2017-09-22T05:40:19.578Z,932.92
2017-09-22T05:40:47.432Z,932.92
2017-09-22T05:41:15.190Z,932.92
2017-09-22T05:41:43.160Z,932.91
2017-09-22T05:42:11.087Z,932.91
2017-09-22T05:42:39.044Z,932.91
2017-09-22T05:43:07.076Z,932.91
2017-09-22T05:43:35.225Z,932.89
2017-09-22T05:44:03.271Z,932.9
2017-09-22T05:44:31.414Z,932.89
2017-09-22T05:44:59.420Z,932.89
2017-09-22T05:45:27.473Z,932.89
2017-09-22T05:45:55.468Z,932.87
2017-09-22T05:46:23.374Z,932.88
2017-09-22T05:46:51.328Z,932.91
2017-09-22T05:47:19.273Z,932.87
2017-09-22T05:47:47.342Z,932.88
2017-09-22T05:48:15.459Z,932.89
2017-09-22T05:48:43.406Z,932.88
2017-09-22T05:49:11.422Z,932.87
2017-09-22T05:49:39.640Z,932.88
2017-09-22T05:50:07.706Z,932.86
2017-09-22T05:50:35.493Z,932.9
2017-09-22T05:51:03.507Z,932.85